Time;durP1;ratioP1;P1;durP2;ratioP2;P2;SDS_P1;SDS_P2;PMS_P1;PMS_P2;Temp;Humidity;BMP_temperature;BMP_pressure;BME280_temperature;BME280_humidity;BME280_pressure;Samples;Min_cycle;Max_cycle;Signal;HPM_P1;HPM_P2
2023/12/07 00:00:22;;;;;;;0.00;0.00;;;;;;;;;;6243175;22;20007;-84
2023/12/07 00:02:48;;;;;;;0.00;0.00;;;;;;;;;;6243203;23;20449;-84
2023/12/07 00:05:13;;;;;;;0.00;0.00;;;;;;;;;;6243780;22;20091;-85
2023/12/07 00:07:39;;;;;;;0.00;0.00;;;;;;;;;;6241967;23;20012;-84
2023/12/07 00:10:05;;;;;;;0.00;0.00;;;;;;;;;;6216670;23;20008;-84
2023/12/07 00:12:30;;;;;;;0.00;0.00;;;;;;;;;;6242008;23;20012;-84
2023/12/07 00:14:57;;;;;;;0.00;0.00;;;;;;;;;;6192048;23;20008;-85
2023/12/07 00:17:23;;;;;;;0.00;0.00;;;;;;;;;;6243887;22;20003;-85
2023/12/07 00:19:50;;;;;;;0.00;0.00;;;;;;;;;;6243809;23;20008;-85
2023/12/07 00:22:16;;;;;;;0.00;0.00;;;;;;;;;;6245584;22;20420;-84
2023/12/07 00:24:41;;;;;;;0.00;0.00;;;;;;;;;;6243837;23;20019;-85
2023/12/07 00:27:07;;;;;;;0.00;0.00;;;;;;;;;;6244091;23;20059;-84
2023/12/07 00:29:32;;;;;;;0.00;0.00;;;;;;;;;;6193633;23;20448;-84
2023/12/07 00:31:58;;;;;;;0.00;0.00;;;;;;;;;;6243693;23;20070;-85
2023/12/07 00:34:23;;;;;;;0.00;0.00;;;;;;;;;;6245313;22;20004;-85
2023/12/07 00:36:49;;;;;;;0.00;0.00;;;;;;;;;;6243989;23;20012;-85
2023/12/07 00:39:14;;;;;;;0.00;0.00;;;;;;;;;;6245438;22;20054;-84
2023/12/07 00:41:40;;;;;;;0.00;0.00;;;;;;;;;;6243806;23;20004;-85
2023/12/07 00:44:05;;;;;;;0.00;0.00;;;;;;;;;;6245947;22;20301;-85
2023/12/07 00:46:31;;;;;;;0.00;0.00;;;;;;;;;;6243713;23;20038;-84
2023/12/07 00:48:56;;;;;;;0.00;0.00;;;;;;;;;;6244025;23;20335;-84
2023/12/07 00:51:22;;;;;;;0.00;0.00;;;;;;;;;;6245626;22;20004;-85
2023/12/07 00:53:47;;;;;;;0.00;0.00;;;;;;;;;;6245298;22;20454;-85
2023/12/07 00:56:13;;;;;;;0.00;0.00;;;;;;;;;;6245210;22;20039;-85
2023/12/07 00:58:38;;;;;;;0.00;0.00;;;;;;;;;;6245078;22;20769;-85
2023/12/07 01:01:04;;;;;;;0.00;0.00;;;;;;;;;;6241926;22;20071;-84
2023/12/07 01:03:29;;;;;;;0.00;0.00;;;;;;;;;;6218152;23;20414;-84
2023/12/07 01:05:55;;;;;;;0.00;0.00;;;;;;;;;;6244752;22;19996;-85
2023/12/07 01:08:21;;;;;;;0.00;0.00;;;;;;;;;;6193499;23;20347;-85
2023/12/07 01:10:46;;;;;;;0.00;0.00;;;;;;;;;;6218187;23;20000;-84
2023/12/07 01:13:12;;;;;;;0.00;0.00;;;;;;;;;;6243426;23;20007;-84
2023/12/07 01:15:37;;;;;;;0.00;0.00;;;;;;;;;;6243151;23;20008;-85
2023/12/07 01:18:03;;;;;;;0.00;0.00;;;;;;;;;;6243452;23;20004;-85
2023/12/07 01:20:28;;;;;;;0.00;0.00;;;;;;;;;;6244706;22;19996;-85
2023/12/07 01:22:54;;;;;;;0.00;0.00;;;;;;;;;;6218058;23;20359;-85
2023/12/07 01:25:21;;;;;;;0.00;0.00;;;;;;;;;;6244599;22;20378;-84
2023/12/07 01:27:47;;;;;;;0.00;0.00;;;;;;;;;;6242940;23;20397;-84
2023/12/07 01:30:13;;;;;;;0.00;0.00;;;;;;;;;;6217905;23;20466;-85
2023/12/07 01:32:38;;;;;;;0.00;0.00;;;;;;;;;;6243166;23;20011;-84
2023/12/07 01:35:04;;;;;;;0.00;0.00;;;;;;;;;;6193220;23;20004;-84
2023/12/07 01:37:30;;;;;;;0.00;0.00;;;;;;;;;;6218827;23;20087;-85
2023/12/07 01:39:56;;;;;;;0.00;0.00;;;;;;;;;;6243391;23;20004;-85
2023/12/07 01:42:21;;;;;;;0.00;0.00;;;;;;;;;;6243319;23;20031;-85
2023/12/07 01:44:47;;;;;;;0.00;0.00;;;;;;;;;;6244684;22;20427;-84
2023/12/07 01:47:12;;;;;;;0.00;0.00;;;;;;;;;;6245389;22;20008;-84
2023/12/07 01:49:38;;;;;;;0.00;0.00;;;;;;;;;;6243749;23;20097;-84
2023/12/07 01:52:04;;;;;;;0.00;0.00;;;;;;;;;;6243987;23;20078;-85
2023/12/07 01:54:29;;;;;;;0.00;0.00;;;;;;;;;;6243837;23;20004;-84
2023/12/07 01:56:56;;;;;;;0.00;0.00;;;;;;;;;;6194344;23;20004;-85
2023/12/07 01:59:21;;;;;;;0.00;0.00;;;;;;;;;;6218261;23;20008;-85
2023/12/07 02:01:47;;;;;;;0.00;0.00;;;;;;;;;;6215511;23;20061;-85
2023/12/07 02:04:13;;;;;;;0.00;0.00;;;;;;;;;;6243216;23;20012;-85
2023/12/07 02:06:38;;;;;;;0.00;0.00;;;;;;;;;;6244630;22;20004;-85
2023/12/07 02:09:04;;;;;;;0.00;0.00;;;;;;;;;;6243191;23;20091;-85
2023/12/07 02:11:29;;;;;;;0.00;0.00;;;;;;;;;;6243518;23;20079;-85
2023/12/07 02:13:57;;;;;;;0.00;0.00;;;;;;;;;;6259311;23;20395;-84
2023/12/07 02:16:41;;;;;;;0.00;0.00;;;;;;;;;;6231938;23;20003;-84
2023/12/07 02:19:31;;;;;;;0.00;0.00;;;;;;;;;;6259815;23;20010;-86
2023/12/07 02:21:59;;;;;;;0.00;0.00;;;;;;;;;;6260307;23;20011;-86
2023/12/07 02:24:26;;;;;;;0.00;0.00;;;;;;;;;;6233414;23;20003;-83
2023/12/07 02:26:51;;;;;;;0.00;0.00;;;;;;;;;;6231554;23;20107;-84
2023/12/07 02:29:17;;;;;;;0.00;0.00;;;;;;;;;;6248986;22;20446;-85
2023/12/07 02:31:43;;;;;;;0.00;0.00;;;;;;;;;;6243961;22;20406;-86
2023/12/07 02:34:09;;;;;;;0.00;0.00;;;;;;;;;;6217525;23;20004;-85
2023/12/07 02:36:35;;;;;;;0.00;0.00;;;;;;;;;;6217317;23;20007;-86
2023/12/07 02:39:01;;;;;;;0.00;0.00;;;;;;;;;;6242126;23;20001;-85
2023/12/07 02:41:27;;;;;;;0.00;0.00;;;;;;;;;;6217787;23;20388;-86
2023/12/07 02:43:53;;;;;;;0.00;0.00;;;;;;;;;;6216941;23;20004;-85
2023/12/07 02:46:18;;;;;;;0.00;0.00;;;;;;;;;;6217535;23;20085;-84
2023/12/07 02:48:44;;;;;;;0.00;0.00;;;;;;;;;;6242408;23;20083;-85
2023/12/07 02:51:09;;;;;;;0.00;0.00;;;;;;;;;;6216864;23;20000;-84
2023/12/07 02:53:35;;;;;;;0.00;0.00;;;;;;;;;;6242899;23;20004;-85
2023/12/07 02:56:00;;;;;;;0.00;0.00;;;;;;;;;;6244685;22;20004;-85
2023/12/07 02:58:26;;;;;;;0.00;0.00;;;;;;;;;;6243553;22;20427;-86
2023/12/07 03:00:51;;;;;;;0.00;0.00;;;;;;;;;;6244061;22;20000;-86
2023/12/07 03:03:17;;;;;;;0.00;0.00;;;;;;;;;;6242339;23;20015;-85
2023/12/07 03:05:42;;;;;;;0.00;0.00;;;;;;;;;;6244017;22;20027;-86
2023/12/07 03:08:08;;;;;;;0.00;0.00;;;;;;;;;;6243946;22;20015;-86
2023/12/07 03:10:33;;;;;;;0.00;0.00;;;;;;;;;;6243471;22;20004;-84
2023/12/07 03:12:59;;;;;;;0.00;0.00;;;;;;;;;;6216874;23;20081;-86
2023/12/07 03:15:26;;;;;;;0.00;0.00;;;;;;;;;;6243779;22;20004;-85
2023/12/07 03:17:51;;;;;;;0.00;0.00;;;;;;;;;;6243986;22;20001;-86
2023/12/07 03:20:17;;;;;;;0.00;0.00;;;;;;;;;;6217283;23;20004;-86
2023/12/07 03:22:42;;;;;;;0.00;0.00;;;;;;;;;;6242395;23;20446;-86
2023/12/07 03:25:08;;;;;;;0.00;0.00;;;;;;;;;;6242379;23;20011;-85
2023/12/07 03:27:33;;;;;;;0.00;0.00;;;;;;;;;;6242196;23;20091;-86
2023/12/07 03:29:59;;;;;;;0.00;0.00;;;;;;;;;;6242390;23;20015;-86
2023/12/07 03:32:24;;;;;;;0.00;0.00;;;;;;;;;;6243700;22;20000;-86
2023/12/07 03:34:50;;;;;;;0.00;0.00;;;;;;;;;;6242291;23;20043;-86
2023/12/07 03:37:16;;;;;;;0.00;0.00;;;;;;;;;;6242234;23;20442;-86
2023/12/07 03:39:41;;;;;;;0.00;0.00;;;;;;;;;;6242040;23;20066;-87
2023/12/07 03:42:07;;;;;;;0.00;0.00;;;;;;;;;;6242264;23;20007;-86
2023/12/07 03:44:32;;;;;;;0.00;0.00;;;;;;;;;;6216909;23;20090;-86
2023/12/07 03:46:58;;;;;;;0.00;0.00;;;;;;;;;;6243738;22;20004;-86
2023/12/07 03:49:23;;;;;;;0.00;0.00;;;;;;;;;;6243440;22;20012;-86
2023/12/07 03:51:49;;;;;;;0.00;0.00;;;;;;;;;;6243597;23;20004;-85
2023/12/07 03:54:14;;;;;;;0.00;0.00;;;;;;;;;;6218867;23;20324;-86
2023/12/07 03:56:43;;;;;;;0.00;0.00;;;;;;;;;;6243113;23;20011;-86
2023/12/07 03:59:08;;;;;;;0.00;0.00;;;;;;;;;;6245656;22;20000;-86
2023/12/07 04:01:34;;;;;;;0.00;0.00;;;;;;;;;;6245673;22;20434;-85
2023/12/07 04:04:00;;;;;;;0.00;0.00;;;;;;;;;;6246113;22;20004;-85
2023/12/07 04:06:26;;;;;;;0.00;0.00;;;;;;;;;;6245738;22;20024;-86
2023/12/07 04:08:51;;;;;;;0.00;0.00;;;;;;;;;;6243819;23;20008;-86
2023/12/07 04:11:17;;;;;;;0.00;0.00;;;;;;;;;;6245367;23;20000;-86
2023/12/07 04:13:42;;;;;;;0.00;0.00;;;;;;;;;;6244193;23;19996;-86
2023/12/07 04:16:11;;;;;;;0.00;0.00;;;;;;;;;;6244086;23;20074;-86
2023/12/07 04:18:37;;;;;;;0.00;0.00;;;;;;;;;;6244048;23;20028;-86
2023/12/07 04:21:03;;;;;;;0.00;0.00;;;;;;;;;;6245355;22;20611;-86
2023/12/07 04:23:28;;;;;;;0.00;0.00;;;;;;;;;;6245237;22;20008;-86
2023/12/07 04:25:54;;;;;;;0.00;0.00;;;;;;;;;;6218720;23;20066;-85
2023/12/07 04:28:19;;;;;;;0.00;0.00;;;;;;;;;;6218595;23;20000;-86
2023/12/07 04:30:45;;;;;;;0.00;0.00;;;;;;;;;;6245943;23;20343;-85
2023/12/07 04:33:10;;;;;;;0.00;0.00;;;;;;;;;;6219325;23;20492;-85
2023/12/07 04:35:36;;;;;;;0.00;0.00;;;;;;;;;;6244708;23;20000;-86
2023/12/07 04:38:02;;;;;;;0.00;0.00;;;;;;;;;;6244659;23;20023;-85
2023/12/07 04:40:27;;;;;;;0.00;0.00;;;;;;;;;;6219752;23;20466;-85
2023/12/07 04:42:53;;;;;;;0.00;0.00;;;;;;;;;;6245368;23;20000;-86
2023/12/07 04:45:18;;;;;;;0.00;0.00;;;;;;;;;;6244809;23;20027;-85
2023/12/07 04:47:44;;;;;;;0.00;0.00;;;;;;;;;;6228047;23;20019;-84
2023/12/07 04:50:10;;;;;;;0.00;0.00;;;;;;;;;;6273603;22;20008;-84
2023/12/07 04:52:36;;;;;;;0.00;0.00;;;;;;;;;;6246712;23;20018;-85
2023/12/07 04:55:01;;;;;;;0.00;0.00;;;;;;;;;;6271913;23;20004;-86
2023/12/07 04:57:27;;;;;;;0.00;0.00;;;;;;;;;;6245677;23;19992;-84
2023/12/07 04:59:52;;;;;;;0.00;0.00;;;;;;;;;;6245691;23;20000;-86
2023/12/07 05:02:18;;;;;;;0.00;0.00;;;;;;;;;;6267364;23;20000;-86
2023/12/07 05:04:44;;;;;;;0.00;0.00;;;;;;;;;;6243850;23;20011;-85
2023/12/07 05:07:11;;;;;;;0.00;0.00;;;;;;;;;;6218423;23;20317;-85
2023/12/07 05:09:36;;;;;;;0.00;0.00;;;;;;;;;;6243643;23;20095;-85
2023/12/07 05:12:03;;;;;;;0.00;0.00;;;;;;;;;;6245281;22;20000;-85
2023/12/07 05:14:31;;;;;;;0.00;0.00;;;;;;;;;;6245350;22;20486;-86
2023/12/07 05:16:56;;;;;;;0.00;0.00;;;;;;;;;;6245438;22;20054;-86
2023/12/07 05:19:24;;;;;;;0.00;0.00;;;;;;;;;;6242298;23;20008;-84
2023/12/07 05:21:51;;;;;;;0.00;0.00;;;;;;;;;;6243558;23;20010;-85
2023/12/07 05:24:16;;;;;;;0.00;0.00;;;;;;;;;;6244041;23;20490;-85
2023/12/07 05:26:42;;;;;;;0.00;0.00;;;;;;;;;;6244773;22;20000;-85
2023/12/07 05:29:08;;;;;;;0.00;0.00;;;;;;;;;;6217304;23;20102;-84
2023/12/07 05:31:34;;;;;;;0.00;0.00;;;;;;;;;;6242434;23;20069;-85
2023/12/07 05:34:00;;;;;;;0.00;0.00;;;;;;;;;;6217447;23;20027;-85
2023/12/07 05:36:26;;;;;;;0.00;0.00;;;;;;;;;;6217764;23;20011;-85
2023/12/07 05:38:52;;;;;;;0.00;0.00;;;;;;;;;;6243012;23;20028;-86
2023/12/07 05:41:17;;;;;;;0.00;0.00;;;;;;;;;;6244982;22;20391;-85
2023/12/07 05:43:43;;;;;;;0.00;0.00;;;;;;;;;;6216923;23;20000;-84
2023/12/07 05:46:08;;;;;;;0.00;0.00;;;;;;;;;;6242753;23;20008;-83
2023/12/07 05:48:34;;;;;;;0.00;0.00;;;;;;;;;;6241829;22;20012;-83
2023/12/07 05:51:02;;;;;;;0.00;0.00;;;;;;;;;;6242450;22;20066;-81
2023/12/07 05:53:27;;;;;;;0.00;0.00;;;;;;;;;;6240598;23;20754;-82
2023/12/07 05:55:54;;;;;;;0.00;0.00;;;;;;;;;;6239255;22;20481;-84
2023/12/07 05:58:19;;;;;;;0.00;0.00;;;;;;;;;;6239191;23;20114;-83
2023/12/07 06:00:46;;;;;;;0.00;0.00;;;;;;;;;;6242634;22;20001;-84
2023/12/07 06:03:17;;;;;;;0.00;0.00;;;;;;;;;;6240520;22;20338;-81
2023/12/07 06:05:45;;;;;;;0.00;0.00;;;;;;;;;;6189122;23;20347;-82
2023/12/07 06:08:11;;;;;;;0.00;0.00;;;;;;;;;;6240784;23;20004;-81
2023/12/07 06:10:37;;;;;;;0.00;0.00;;;;;;;;;;6238040;23;20424;-82
2023/12/07 06:13:03;;;;;;;0.00;0.00;;;;;;;;;;6239699;23;20014;-84
2023/12/07 06:15:28;;;;;;;0.00;0.00;;;;;;;;;;6242819;23;20335;-84
2023/12/07 06:17:54;;;;;;;0.00;0.00;;;;;;;;;;6244486;23;20057;-85
2023/12/07 06:20:20;;;;;;;0.00;0.00;;;;;;;;;;6239739;23;20138;-85
2023/12/07 06:22:46;;;;;;;0.00;0.00;;;;;;;;;;6239424;23;20004;-84
2023/12/07 06:25:12;;;;;;;0.00;0.00;;;;;;;;;;6247824;22;20441;-86
2023/12/07 06:27:38;;;;;;;0.00;0.00;;;;;;;;;;6241964;23;20095;-84
2023/12/07 06:30:08;;;;;;;0.00;0.00;;;;;;;;;;6268120;22;20117;-84
2023/12/07 06:32:34;;;;;;;;;;;;;;;;;;6242048;23;20076;-85
2023/12/07 06:35:00;;;;;;;0.00;0.00;;;;;;;;;;6239352;23;19982;-85
2023/12/07 06:37:26;;;;;;;0.00;0.00;;;;;;;;;;6249372;23;20079;-83
2023/12/07 06:39:51;;;;;;;0.00;0.00;;;;;;;;;;6252119;23;20057;-85
2023/12/07 06:42:18;;;;;;;0.00;0.00;;;;;;;;;;6242907;23;20011;-85
2023/12/07 06:44:48;;;;;;;0.00;0.00;;;;;;;;;;6243796;23;20030;-85
2023/12/07 06:47:14;;;;;;;0.00;0.00;;;;;;;;;;6244434;23;20030;-85
2023/12/07 06:49:42;;;;;;;0.00;0.00;;;;;;;;;;6214900;23;20393;-82
2023/12/07 06:52:08;;;;;;;0.00;0.00;;;;;;;;;;6242865;22;20499;-84
2023/12/07 06:54:34;;;;;;;0.00;0.00;;;;;;;;;;6245509;22;20023;-85
2023/12/07 06:57:03;;;;;;;0.00;0.00;;;;;;;;;;6241656;23;20033;-84
2023/12/07 06:59:29;;;;;;;0.00;0.00;;;;;;;;;;6218196;23;20007;-82
2023/12/07 07:02:00;;;;;;;0.00;0.00;;;;;;;;;;6244554;23;20090;-83
2023/12/07 07:04:34;;;;;;;0.00;0.00;;;;;;;;;;6247464;23;20027;-89
2023/12/07 07:06:59;;;;;;;0.00;0.00;;;;;;;;;;6244919;23;20026;-88
2023/12/07 07:09:25;;;;;;;0.00;0.00;;;;;;;;;;6250489;23;20015;-83
2023/12/07 07:11:56;;;;;;;0.00;0.00;;;;;;;;;;6251212;22;20052;-82
2023/12/07 07:14:22;;;;;;;0.00;0.00;;;;;;;;;;6252788;23;20011;-83
2023/12/07 07:16:48;;;;;;;0.00;0.00;;;;;;;;;;6256375;22;19988;-85
2023/12/07 07:19:13;;;;;;;0.00;0.00;;;;;;;;;;6258611;23;19999;-84
2023/12/07 07:21:50;;;;;;;0.00;0.00;;;;;;;;;;6240100;22;20056;-88
2023/12/07 07:24:17;;;;;;;0.00;0.00;;;;;;;;;;6255930;22;20454;-87
2023/12/07 07:26:43;;;;;;;0.00;0.00;;;;;;;;;;6217240;23;20562;-83
2023/12/07 07:29:08;;;;;;;0.00;0.00;;;;;;;;;;6244519;22;20069;-82
2023/12/07 07:31:35;;;;;;;0.00;0.00;;;;;;;;;;6245698;22;20019;-86
2023/12/07 07:34:00;;;;;;;0.00;0.00;;;;;;;;;;6246061;23;20083;-87
2023/12/07 07:36:26;;;;;;;0.00;0.00;;;;;;;;;;6217919;23;20016;-80
2023/12/07 07:38:52;;;;;;;0.00;0.00;;;;;;;;;;6243393;23;20075;-84
2023/12/07 07:41:18;;;;;;;0.00;0.00;;;;;;;;;;6249885;22;20063;-90
2023/12/07 07:43:44;;;;;;;0.00;0.00;;;;;;;;;;6251872;23;20066;-85
2023/12/07 07:46:11;;;;;;;0.00;0.00;;;;;;;;;;6246850;23;20445;-88
2023/12/07 07:48:37;;;;;;;0.00;0.00;;;;;;;;;;6253358;23;20053;-91
2023/12/07 07:51:04;;;;;;;0.00;0.00;;;;;;;;;;6254395;22;20008;-87
2023/12/07 07:53:30;;;;;;;0.00;0.00;;;;;;;;;;6246515;22;20003;-84
2023/12/07 07:56:04;;;;;;;0.00;0.00;;;;;;;;;;6252005;23;20420;-87
2023/12/07 07:58:30;;;;;;;0.00;0.00;;;;;;;;;;6243981;23;20036;-90
2023/12/07 08:00:57;;;;;;;0.00;0.00;;;;;;;;;;6249861;22;20012;-91
2023/12/07 08:03:25;;;;;;;0.00;0.00;;;;;;;;;;6251645;23;20015;-85
2023/12/07 08:05:50;;;;;;;0.00;0.00;;;;;;;;;;6249718;22;20342;-85
2023/12/07 08:08:34;;;;;;;0.00;0.00;;;;;;;;;;6250871;22;20035;-84
2023/12/07 08:11:01;;;;;;;0.00;0.00;;;;;;;;;;6255232;22;20039;-87
2023/12/07 08:13:27;;;;;;;0.00;0.00;;;;;;;;;;6245024;23;20004;-88
2023/12/07 08:15:54;;;;;;;0.00;0.00;;;;;;;;;;6227418;23;20008;-87
2023/12/07 08:18:23;;;;;;;0.00;0.00;;;;;;;;;;6242996;23;20054;-87
2023/12/07 08:20:51;;;;;;;0.00;0.00;;;;;;;;;;6250768;23;20419;-86
2023/12/07 08:23:20;;;;;;;0.00;0.00;;;;;;;;;;6250577;23;20442;-84
2023/12/07 08:25:46;;;;;;;0.00;0.00;;;;;;;;;;6244083;22;20028;-81
2023/12/07 08:28:11;;;;;;;0.00;0.00;;;;;;;;;;6242524;23;20419;-84
2023/12/07 08:30:37;;;;;;;0.00;0.00;;;;;;;;;;6242788;22;20151;-78
2023/12/07 08:33:03;;;;;;;0.00;0.00;;;;;;;;;;6240219;23;20008;-77
2023/12/07 08:35:28;;;;;;;0.00;0.00;;;;;;;;;;6242095;23;20343;-83
2023/12/07 08:37:54;;;;;;;0.00;0.00;;;;;;;;;;6245435;22;20011;-87
2023/12/07 08:40:19;;;;;;;0.00;0.00;;;;;;;;;;6241652;22;20482;-90
2023/12/07 08:42:45;;;;;;;0.00;0.00;;;;;;;;;;6244856;23;20440;-86
2023/12/07 08:45:11;;;;;;;0.00;0.00;;;;;;;;;;6241525;23;20004;-87
2023/12/07 08:47:38;;;;;;;0.00;0.00;;;;;;;;;;6238644;23;20002;-84
2023/12/07 08:50:04;;;;;;;0.00;0.00;;;;;;;;;;6242885;22;20036;-88
2023/12/07 08:52:29;;;;;;;0.00;0.00;;;;;;;;;;6244137;22;20000;-88
2023/12/07 08:54:55;;;;;;;0.00;0.00;;;;;;;;;;6238902;23;20007;-87
2023/12/07 08:57:20;;;;;;;0.00;0.00;;;;;;;;;;6213630;23;20007;-86
2023/12/07 08:59:46;;;;;;;0.00;0.00;;;;;;;;;;6213188;23;20015;-86
2023/12/07 09:02:11;;;;;;;0.00;0.00;;;;;;;;;;6237950;22;20008;-84
2023/12/07 09:04:53;;;;;;;0.00;0.00;;;;;;;;;;6215939;23;20064;-86
2023/12/07 09:07:31;;;;;;;0.00;0.00;;;;;;;;;;6228921;23;20427;-89
2023/12/07 09:10:02;;;;;;;0.00;0.00;;;;;;;;;;6224995;23;20042;-85
2023/12/07 09:12:28;;;;;;;0.00;0.00;;;;;;;;;;6198426;23;20081;-87
2023/12/07 09:14:53;;;;;;;0.00;0.00;;;;;;;;;;6267739;22;20027;-87
2023/12/07 09:17:21;;;;;;;0.00;0.00;;;;;;;;;;6216872;23;20014;-85
2023/12/07 09:19:47;;;;;;;0.00;0.00;;;;;;;;;;6218238;23;20008;-86
2023/12/07 09:22:15;;;;;;;0.00;0.00;;;;;;;;;;6242025;23;21025;-88
2023/12/07 09:24:41;;;;;;;0.00;0.00;;;;;;;;;;6243126;23;20146;-87
2023/12/07 09:27:13;;;;;;;0.00;0.00;;;;;;;;;;6216418;23;20008;-86
2023/12/07 09:29:40;;;;;;;0.00;0.00;;;;;;;;;;6243371;22;20442;-86
2023/12/07 09:32:07;;;;;;;0.00;0.00;;;;;;;;;;6219934;23;20375;-89
2023/12/07 09:34:51;;;;;;;0.00;0.00;;;;;;;;;;6246082;23;20011;-86
2023/12/07 09:37:17;;;;;;;0.00;0.00;;;;;;;;;;6253728;23;20020;-86
2023/12/07 09:39:46;;;;;;;0.00;0.00;;;;;;;;;;6254644;23;20024;-86
2023/12/07 09:42:14;;;;;;;0.00;0.00;;;;;;;;;;6256719;22;20024;-87
2023/12/07 09:44:45;;;;;;;0.00;0.00;;;;;;;;;;6257271;22;20063;-91
2023/12/07 09:47:24;;;;;;;0.00;0.00;;;;;;;;;;6216697;23;20016;-88
2023/12/07 09:49:50;;;;;;;0.00;0.00;;;;;;;;;;6246874;23;20454;-93
2023/12/07 09:52:16;;;;;;;0.00;0.00;;;;;;;;;;6196709;23;20004;-91
2023/12/07 09:54:42;;;;;;;0.00;0.00;;;;;;;;;;6215820;23;20039;-92
2023/12/07 10:00:02;;;;;;;0.00;0.00;;;;;;;;;;6193666;23;20005;-91
2023/12/07 10:02:28;;;;;;;0.00;0.00;;;;;;;;;;6217389;23;20007;-84
2023/12/07 10:05:06;;;;;;;0.00;0.00;;;;;;;;;;6241116;22;20360;-84
2023/12/07 10:07:40;;;;;;;0.00;0.00;;;;;;;;;;6243779;23;20043;-87
2023/12/07 10:10:37;;;;;;;0.00;0.00;;;;;;;;;;6197690;23;20012;-90
2023/12/07 10:13:21;;;;;;;0.00;0.00;;;;;;;;;;6247011;23;20086;-90
2023/12/07 10:16:43;;;;;;;0.00;0.00;;;;;;;;;;6217950;23;20011;-91
2023/12/07 10:19:21;;;;;;;0.00;0.00;;;;;;;;;;6222857;23;20362;-90
2023/12/07 10:22:35;;;;;;;0.00;0.00;;;;;;;;;;6200816;23;20524;-90
2023/12/07 10:25:01;;;;;;;0.00;0.00;;;;;;;;;;6245454;23;20012;-88
2023/12/07 10:27:28;;;;;;;0.00;0.00;;;;;;;;;;6245503;23;20475;-86
2023/12/07 10:29:53;;;;;;;0.00;0.00;;;;;;;;;;6239229;23;20434;-85
2023/12/07 10:32:37;;;;;;;0.00;0.00;;;;;;;;;;6247246;23;20028;-86
2023/12/07 10:35:06;;;;;;;0.00;0.00;;;;;;;;;;6247385;23;20004;-93
2023/12/07 10:37:35;;;;;;;0.00;0.00;;;;;;;;;;6255669;22;20004;-90
2023/12/07 10:40:32;;;;;;;0.00;0.00;;;;;;;;;;6222757;23;20060;-82
2023/12/07 10:42:57;;;;;;;0.00;0.00;;;;;;;;;;6218943;23;20054;-88
2023/12/07 10:45:24;;;;;;;0.10;0.00;;;;;;;;;;6236299;23;20094;-89
2023/12/07 10:47:50;;;;;;;0.00;0.00;;;;;;;;;;6201216;23;20340;-87
2023/12/07 10:50:16;;;;;;;0.00;0.00;;;;;;;;;;6205085;23;20004;-87
2023/12/07 10:52:49;;;;;;;0.00;0.00;;;;;;;;;;6206797;23;20071;-90
2023/12/07 10:55:28;;;;;;;0.00;0.00;;;;;;;;;;6217624;23;20012;-91
2023/12/07 10:57:56;;;;;;;0.00;0.00;;;;;;;;;;6233563;23;20011;-93
2023/12/07 11:00:27;;;;;;;0.00;0.00;;;;;;;;;;6219311;23;20012;-88
2023/12/07 11:02:53;;;;;;;0.00;0.00;;;;;;;;;;6189992;23;20009;-90
2023/12/07 11:05:21;;;;;;;0.00;0.00;;;;;;;;;;6216587;23;20019;-87
2023/12/07 11:07:54;;;;;;;0.00;0.00;;;;;;;;;;6194106;23;20102;-88
2023/12/07 11:10:36;;;;;;;0.00;0.00;;;;;;;;;;6190987;23;20004;-86
2023/12/07 11:13:13;;;;;;;0.00;0.00;;;;;;;;;;6217434;23;20020;-86
2023/12/07 11:15:38;;;;;;;0.00;0.00;;;;;;;;;;6239942;23;20438;-90
2023/12/07 11:18:05;;;;;;;0.00;0.00;;;;;;;;;;6225070;23;20012;-90
2023/12/07 11:20:48;;;;;;;0.00;0.00;;;;;;;;;;6249626;22;19997;-93
2023/12/07 11:23:31;;;;;;;0.00;0.00;;;;;;;;;;6224656;23;20007;-91
2023/12/07 11:25:57;;;;;;;0.00;0.00;;;;;;;;;;6221069;23;20346;-89
2023/12/07 11:28:36;;;;;;;0.00;0.00;;;;;;;;;;6218985;23;20040;-87
2023/12/07 11:31:01;;;;;;;0.00;0.00;;;;;;;;;;6192352;23;20004;-85
2023/12/07 11:33:31;;;;;;;0.00;0.00;;;;;;;;;;6214562;23;20031;-86
2023/12/07 11:36:13;;;;;;;0.00;0.00;;;;;;;;;;6244003;23;20058;-84
2023/12/07 11:38:58;;;;;;;0.00;0.00;;;;;;;;;;6265751;22;20659;-86
2023/12/07 11:41:24;;;;;;;0.00;0.00;;;;;;;;;;6238606;23;20007;-87
2023/12/07 11:43:53;;;;;;;0.00;0.00;;;;;;;;;;6213696;23;20459;-86
2023/12/07 11:46:20;;;;;;;0.00;0.00;;;;;;;;;;6237422;23;20748;-85
2023/12/07 11:48:48;;;;;;;0.00;0.00;;;;;;;;;;6238335;22;20008;-91
2023/12/07 11:51:14;;;;;;;0.00;0.00;;;;;;;;;;6217878;23;20030;-91
2023/12/07 11:53:40;;;;;;;0.00;0.00;;;;;;;;;;6214449;23;20004;-88
2023/12/07 11:56:07;;;;;;;0.00;0.00;;;;;;;;;;6236431;23;20562;-87
2023/12/07 11:58:34;;;;;;;0.00;0.00;;;;;;;;;;6209147;23;20018;-87
2023/12/07 12:01:01;;;;;;;0.00;0.00;;;;;;;;;;6239570;22;20015;-90
2023/12/07 12:03:27;;;;;;;0.00;0.00;;;;;;;;;;6235160;23;20004;-90
2023/12/07 12:05:54;;;;;;;0.00;0.00;;;;;;;;;;6219684;23;20031;-92
2023/12/07 12:08:20;;;;;;;0.00;0.00;;;;;;;;;;6241837;23;21077;-86
2023/12/07 12:10:56;;;;;;;0.00;0.00;;;;;;;;;;6241095;23;20013;-84
2023/12/07 12:13:26;;;;;;;0.00;0.00;;;;;;;;;;6244372;23;20000;-86
2023/12/07 12:15:54;;;;;;;0.00;0.00;;;;;;;;;;6219856;23;20004;-84
2023/12/07 12:18:20;;;;;;;0.00;0.00;;;;;;;;;;6240261;23;20071;-86
2023/12/07 12:20:46;;;;;;;0.00;0.00;;;;;;;;;;6218117;23;20011;-93
2023/12/07 12:23:12;;;;;;;0.00;0.00;;;;;;;;;;6193760;23;20008;-88
2023/12/07 12:25:37;;;;;;;0.00;0.00;;;;;;;;;;6244626;22;20004;-84
2023/12/07 12:28:08;;;;;;;0.00;0.00;;;;;;;;;;6245412;23;20004;-87
2023/12/07 12:30:34;;;;;;;0.00;0.00;;;;;;;;;;6192043;23;20011;-84
2023/12/07 12:32:59;;;;;;;0.00;0.00;;;;;;;;;;6214788;23;20000;-82
2023/12/07 12:35:25;;;;;;;0.00;0.00;;;;;;;;;;6242701;22;20371;-84
2023/12/07 12:37:51;;;;;;;0.00;0.00;;;;;;;;;;6242327;23;20004;-84
2023/12/07 12:40:18;;;;;;;0.00;0.00;;;;;;;;;;6242983;23;20014;-84
2023/12/07 12:42:51;;;;;;;0.00;0.00;;;;;;;;;;6218618;23;20008;-84
2023/12/07 12:45:20;;;;;;;0.00;0.00;;;;;;;;;;6242952;23;20010;-83
2023/12/07 12:47:47;;;;;;;0.00;0.00;;;;;;;;;;6247771;23;20031;-93
2023/12/07 12:50:31;;;;;;;0.00;0.00;;;;;;;;;;6250696;23;20004;-93
2023/12/07 12:52:58;;;;;;;0.00;0.00;;;;;;;;;;6225451;23;20019;-90
2023/12/07 12:55:26;;;;;;;0.00;0.00;;;;;;;;;;6229722;23;20066;-92
2023/12/07 12:57:51;;;;;;;0.00;0.00;;;;;;;;;;6224912;23;20000;-92
2023/12/07 13:00:17;;;;;;;0.00;0.00;;;;;;;;;;6208734;23;19996;-91
2023/12/07 13:02:43;;;;;;;0.00;0.00;;;;;;;;;;6242879;22;20042;-93
2023/12/07 13:05:08;;;;;;;0.00;0.00;;;;;;;;;;6244997;22;19996;-89
2023/12/07 13:07:35;;;;;;;0.00;0.00;;;;;;;;;;6247789;22;20055;-83
2023/12/07 13:10:01;;;;;;;0.00;0.00;;;;;;;;;;6274655;22;19996;-87
2023/12/07 13:12:27;;;;;;;0.00;0.00;;;;;;;;;;6248511;22;20000;-86
2023/12/07 13:14:54;;;;;;;0.00;0.00;;;;;;;;;;6274319;22;19984;-87
2023/12/07 13:17:20;;;;;;;0.00;0.00;;;;;;;;;;6256765;22;20336;-89
2023/12/07 13:19:45;;;;;;;0.00;0.00;;;;;;;;;;6217816;23;20010;-87
2023/12/07 13:22:11;;;;;;;0.00;0.00;;;;;;;;;;6193767;23;20032;-88
2023/12/07 13:24:36;;;;;;;0.00;0.00;;;;;;;;;;6243966;23;20004;-88
2023/12/07 13:27:02;;;;;;;0.00;0.00;;;;;;;;;;6244462;23;19996;-90
2023/12/07 13:29:27;;;;;;;0.00;0.00;;;;;;;;;;6245723;22;20007;-90
2023/12/07 13:31:53;;;;;;;0.00;0.00;;;;;;;;;;6219228;23;20411;-88
2023/12/07 13:34:18;;;;;;;0.00;0.00;;;;;;;;;;6243924;23;19996;-89
2023/12/07 13:36:44;;;;;;;0.00;0.00;;;;;;;;;;6218493;23;20011;-90
2023/12/07 13:39:12;;;;;;;0.00;0.00;;;;;;;;;;6243747;23;20379;-88
2023/12/07 13:41:38;;;;;;;0.00;0.00;;;;;;;;;;6243863;23;20004;-88
2023/12/07 13:44:04;;;;;;;0.00;0.00;;;;;;;;;;6245215;22;19996;-88
2023/12/07 13:46:31;;;;;;;0.00;0.00;;;;;;;;;;6218401;23;20044;-88
2023/12/07 13:48:57;;;;;;;0.00;0.00;;;;;;;;;;6245256;22;20007;-88
2023/12/07 13:51:23;;;;;;;0.00;0.00;;;;;;;;;;6244155;23;20008;-88
2023/12/07 13:53:48;;;;;;;0.00;0.00;;;;;;;;;;6193485;23;20004;-87
2023/12/07 13:56:14;;;;;;;0.00;0.00;;;;;;;;;;6244207;23;20067;-88
2023/12/07 13:58:39;;;;;;;0.00;0.00;;;;;;;;;;6243480;23;20427;-89
2023/12/07 14:01:05;;;;;;;0.00;0.00;;;;;;;;;;6243058;22;20468;-88
2023/12/07 14:03:31;;;;;;;0.00;0.00;;;;;;;;;;6243329;23;20004;-88
2023/12/07 14:05:56;;;;;;;0.00;0.00;;;;;;;;;;6218457;23;20035;-89
2023/12/07 14:08:22;;;;;;;0.00;0.00;;;;;;;;;;6243796;23;20058;-88
2023/12/07 14:10:47;;;;;;;0.00;0.00;;;;;;;;;;6243146;23;20054;-88
2023/12/07 14:13:13;;;;;;;0.00;0.00;;;;;;;;;;6241571;23;20094;-88
2023/12/07 14:15:38;;;;;;;0.00;0.00;;;;;;;;;;6191599;23;20008;-89
2023/12/07 14:18:04;;;;;;;0.00;0.00;;;;;;;;;;6214805;23;20004;-88
2023/12/07 14:20:30;;;;;;;0.00;0.00;;;;;;;;;;6242271;22;20010;-89
2023/12/07 14:22:57;;;;;;;0.00;0.00;;;;;;;;;;6241764;23;20404;-89
2023/12/07 14:25:24;;;;;;;0.00;0.00;;;;;;;;;;6241688;23;20058;-88
2023/12/07 14:27:49;;;;;;;0.00;0.00;;;;;;;;;;6243879;22;20011;-89
2023/12/07 14:30:16;;;;;;;0.00;0.00;;;;;;;;;;6244683;22;20075;-89
2023/12/07 14:32:51;;;;;;;0.00;0.00;;;;;;;;;;6218679;23;20372;-87
2023/12/07 14:35:20;;;;;;;0.00;0.00;;;;;;;;;;6243912;22;20004;-88
2023/12/07 14:37:45;;;;;;;0.00;0.00;;;;;;;;;;6241194;23;20011;-88
2023/12/07 14:40:12;;;;;;;0.00;0.00;;;;;;;;;;6217945;23;20449;-89
2023/12/07 14:42:37;;;;;;;0.00;0.00;;;;;;;;;;6244442;22;20000;-88
2023/12/07 14:45:04;;;;;;;0.00;0.00;;;;;;;;;;6192718;23;20034;-89
2023/12/07 14:47:30;;;;;;;0.00;0.00;;;;;;;;;;6244424;22;20000;-89